Sid Moller — WDF9421 — position and weather

sailwx.info

Track history (hours):
 
Tides and Currents Weather Stations Pressure Air Temp Water Temp Dewpoint Dewpoint Depression Visibility Wind Speed Wind Dir Waves Ship Positions

Sid Moller

Owner: Genesis Marine, LLC, Houston, TX. More information available from US FCC via Universal Licensing System and Coast Guard Vessel Documentation Center.

Last reported at 2014-Oct-18 16:26 UTC. Time now 2014-Oct-23 00:52 UTC.
Position N 29°24' W 094°44'.

Length 27 m; draft 2.7 m.

Type: Towing. MMSI: 367504980.

Date/timePositionNaut miles runAvg speedWind from/ knotsBaromVisibWave heightAir tempDewpointWater temp
2014-Oct-18 16:26N 29°24' W 094°44'3 3.7
2014-Oct-18 15:32N 29°22' W 094°47'5 4.8
2014-Oct-18 14:33N 29°23' W 094°53'1 0.7
2014-Oct-18 13:33N 29°23' W 094°53'0 0.0
2014-Oct-18 12:33N 29°23' W 094°53'0 0.0
2014-Oct-18 11:33N 29°23' W 094°53'0 0.0
2014-Oct-18 10:28N 29°23' W 094°53'0 0.0
2014-Oct-18 09:23N 29°23' W 094°53'0 0.0
2014-Oct-17 12:32N 29°23' W 094°53'2 2.2
2014-Oct-17 11:31N 29°22' W 094°51'5 0.5
2014-Oct-17 01:29N 29°24' W 094°45'0 0.0
2014-Oct-16 17:14N 29°24' W 094°45'0 0.0
2014-Oct-16 15:11N 29°24' W 094°45'0 0.3
2014-Oct-16 14:26N 29°24' W 094°45'3 3.4
2014-Oct-16 13:27N 29°21' W 094°47'4 0.1
2014-Oct-14 14:33N 29°22' W 094°51'2 0.6
2014-Oct-14 11:22N 29°23' W 094°53'0 0.0
2014-Oct-14 10:29N 29°23' W 094°53'0 0.0
2014-Oct-14 09:32N 29°23' W 094°53'0 0.0
2014-Oct-14 08:32N 29°23' W 094°53'0 0.0
2014-Oct-14 01:28N 29°23' W 094°53'0 0.0
2014-Oct-12 15:26N 29°23' W 094°53'0 0.1
2014-Oct-12 14:33N 29°23' W 094°53'0 0.0
2014-Oct-11 18:08N 29°23' W 094°53'0 0.0
2014-Oct-11 17:33N 29°23' W 094°53'0 0.0
2014-Oct-11 11:31N 29°23' W 094°53'0 0.2
2014-Oct-11 10:31N 29°23' W 094°53'4 4.2
2014-Oct-11 09:33N 29°22' W 094°49'4 4.2
2014-Oct-11 08:30N 29°26' W 094°50'5 5.2
2014-Oct-11 07:33N 29°31' W 094°53'5 4.8
2014-Oct-11 06:33N 29°35' W 094°56'5 5.4
2014-Oct-11 05:33N 29°39' W 094°58'5 4.8
2014-Oct-11 04:33N 29°43' W 095°01'4 4.1
2014-Oct-11 03:32N 29°46' W 095°05'0 0.0
2014-Oct-11 02:16N 29°46' W 095°05'0 0.0
2014-Oct-11 01:33N 29°46' W 095°05'0 0.0
2014-Oct-11 00:33N 29°46' W 095°05'0 0.2
2014-Oct-10 23:29N 29°47' W 095°05'0 0.1
2014-Oct-10 22:31N 29°47' W 095°05'0 0.0
2014-Oct-10 21:33N 29°47' W 095°05'0 0.0
2014-Oct-10 20:31N 29°47' W 095°05'1 1.0
2014-Oct-10 19:33N 29°46' W 095°05'1 1.2
2014-Oct-10 18:33N 29°45' W 095°04'6 5.7
2014-Oct-10 17:33N 29°41' W 094°59'6 6.3
2014-Oct-10 16:33N 29°36' W 094°57'6 6.2
2014-Oct-10 15:33N 29°31' W 094°53'6 6.2
2014-Oct-10 14:32N 29°25' W 094°49'  
Track history (hours):
 
Tides and Currents Weather Stations Pressure Air Temp Water Temp Dewpoint Dewpoint Depression Visibility Wind Speed Wind Dir Waves Ship Positions

Sid Moller

Owner: Genesis Marine, LLC, Houston, TX. More information available from US FCC via Universal Licensing System and Coast Guard Vessel Documentation Center.

Last reported at 2014-Oct-18 16:26 UTC. Time now 2014-Oct-23 00:52 UTC.
Position N 29°24' W 094°44'.

Length 27 m; draft 2.7 m.

Type: Towing. MMSI: 367504980.

Date/timePositionNaut miles runAvg speedWind from/ knotsBaromVisibWave heightAir tempDewpointWater temp
2014-Oct-18 16:26N 29°24' W 094°44'3 3.7
2014-Oct-18 15:32N 29°22' W 094°47'5 4.8
2014-Oct-18 14:33N 29°23' W 094°53'1 0.7
2014-Oct-18 13:33N 29°23' W 094°53'0 0.0
2014-Oct-18 12:33N 29°23' W 094°53'0 0.0
2014-Oct-18 11:33N 29°23' W 094°53'0 0.0
2014-Oct-18 10:28N 29°23' W 094°53'0 0.0
2014-Oct-18 09:23N 29°23' W 094°53'0 0.0
2014-Oct-17 12:32N 29°23' W 094°53'2 2.2
2014-Oct-17 11:31N 29°22' W 094°51'5 0.5
2014-Oct-17 01:29N 29°24' W 094°45'0 0.0
2014-Oct-16 17:14N 29°24' W 094°45'0 0.0
2014-Oct-16 15:11N 29°24' W 094°45'0 0.3
2014-Oct-16 14:26N 29°24' W 094°45'3 3.4
2014-Oct-16 13:27N 29°21' W 094°47'4 0.1
2014-Oct-14 14:33N 29°22' W 094°51'2 0.6
2014-Oct-14 11:22N 29°23' W 094°53'0 0.0
2014-Oct-14 10:29N 29°23' W 094°53'0 0.0
2014-Oct-14 09:32N 29°23' W 094°53'0 0.0
2014-Oct-14 08:32N 29°23' W 094°53'0 0.0
2014-Oct-14 01:28N 29°23' W 094°53'0 0.0
2014-Oct-12 15:26N 29°23' W 094°53'0 0.1
2014-Oct-12 14:33N 29°23' W 094°53'0 0.0
2014-Oct-11 18:08N 29°23' W 094°53'0 0.0
2014-Oct-11 17:33N 29°23' W 094°53'0 0.0
2014-Oct-11 11:31N 29°23' W 094°53'0 0.2
2014-Oct-11 10:31N 29°23' W 094°53'4 4.2
2014-Oct-11 09:33N 29°22' W 094°49'4 4.2
2014-Oct-11 08:30N 29°26' W 094°50'5 5.2
2014-Oct-11 07:33N 29°31' W 094°53'5 4.8
2014-Oct-11 06:33N 29°35' W 094°56'5 5.4
2014-Oct-11 05:33N 29°39' W 094°58'5 4.8
2014-Oct-11 04:33N 29°43' W 095°01'4 4.1
2014-Oct-11 03:32N 29°46' W 095°05'0 0.0
2014-Oct-11 02:16N 29°46' W 095°05'0 0.0
2014-Oct-11 01:33N 29°46' W 095°05'0 0.0
2014-Oct-11 00:33N 29°46' W 095°05'0 0.2
2014-Oct-10 23:29N 29°47' W 095°05'0 0.1
2014-Oct-10 22:31N 29°47' W 095°05'0 0.0
2014-Oct-10 21:33N 29°47' W 095°05'0 0.0
2014-Oct-10 20:31N 29°47' W 095°05'1 1.0
2014-Oct-10 19:33N 29°46' W 095°05'1 1.2
2014-Oct-10 18:33N 29°45' W 095°04'6 5.7
2014-Oct-10 17:33N 29°41' W 094°59'6 6.3
2014-Oct-10 16:33N 29°36' W 094°57'6 6.2
2014-Oct-10 15:33N 29°31' W 094°53'6 6.2
2014-Oct-10 14:32N 29°25' W 094°49'  

Dump ship's entire track history